Time;durP1;ratioP1;P1;durP2;ratioP2;P2;SDS_P1;SDS_P2;PMS_P1;PMS_P2;Temp;Humidity;BMP_temperature;BMP_pressure;BME280_temperature;BME280_humidity;BME280_pressure;Samples;Min_cycle;Max_cycle;Signal;HPM_P1;HPM_P2
2023/03/23 00:01:19;;;;;;;19.13;4.20;;;;;;;8.83;100.00;97641.91;5011489;28;20048;-91
2023/03/23 00:03:50;;;;;;;23.23;4.65;;;;;;;8.65;100.00;97631.16;5013477;28;20483;-92
2023/03/23 00:06:17;;;;;;;21.73;3.92;;;;;;;8.79;100.00;97635.28;5014878;28;20079;-92
2023/03/23 00:08:45;;;;;;;19.38;3.67;;;;;;;8.66;100.00;97628.44;5013685;28;20055;-92
2023/03/23 00:11:16;;;;;;;17.35;5.32;;;;;;;8.64;100.00;97613.81;5015143;28;20399;-91
2023/03/23 00:13:43;;;;;;;18.40;4.22;;;;;;;8.63;100.00;97618.22;5014736;28;20052;-91
2023/03/23 00:16:17;;;;;;;21.10;4.15;;;;;;;8.54;100.00;97606.75;5011463;28;20033;-91
2023/03/23 00:18:47;;;;;;;25.00;5.18;;;;;;;8.61;100.00;97604.47;5006864;28;20045;-91
2023/03/23 00:21:13;;;;;;;24.30;4.72;;;;;;;8.63;100.00;97601.75;4995674;28;20050;-91
2023/03/23 00:23:39;;;;;;;21.08;4.25;;;;;;;8.58;100.00;97596.06;4994676;28;20100;-90
2023/03/23 00:26:05;;;;;;;13.30;4.30;;;;;;;8.55;100.00;97592.78;4995119;28;20041;-91
2023/03/23 00:28:31;;;;;;;23.05;4.07;;;;;;;8.69;100.00;97594.28;4997982;28;20045;-91
2023/03/23 00:30:58;;;;;;;19.73;3.67;;;;;;;8.80;100.00;97598.63;5014096;28;20094;-91
2023/03/23 00:33:26;;;;;;;29.05;4.97;;;;;;;8.48;100.00;97573.34;5014445;28;20395;-89
2023/03/23 00:35:53;;;;;;;22.55;4.80;;;;;;;8.56;100.00;97588.38;5012565;28;20077;-91
2023/03/23 00:38:19;;;;;;;27.08;6.03;;;;;;;8.47;100.00;97589.09;5019802;28;20657;-90
2023/03/23 00:40:47;;;;;;;23.58;5.05;;;;;;;8.54;100.00;97583.28;5010975;28;20124;-91
2023/03/23 00:43:15;;;;;;;18.20;4.20;;;;;;;8.48;100.00;97573.34;5014795;28;20534;-91
2023/03/23 00:45:41;;;;;;;32.05;5.00;;;;;;;8.57;100.00;97581.38;5011836;28;20046;-91
2023/03/23 00:48:06;;;;;;;20.33;3.13;;;;;;;8.55;100.00;97579.72;5011049;28;20044;-92
2023/03/23 00:50:32;;;;;;;17.65;4.00;;;;;;;8.62;100.00;97553.16;5005221;28;20056;-91
2023/03/23 00:52:58;;;;;;;25.25;4.00;;;;;;;8.65;100.00;97574.59;4998436;28;20049;-92
2023/03/23 00:55:25;;;;;;;21.90;4.32;;;;;;;8.53;100.00;97566.00;4996666;28;20053;-92
2023/03/23 00:57:51;;;;;;;21.45;4.65;;;;;;;8.63;100.00;97576.50;5012823;28;20143;-92
2023/03/23 01:00:18;;;;;;;18.58;3.80;;;;;;;8.57;100.00;97553.53;5006192;28;20488;-91
2023/03/23 01:02:44;;;;;;;15.35;3.60;;;;;;;8.60;100.00;97562.88;5007748;28;20096;-91
2023/03/23 01:05:11;;;;;;;20.00;3.53;;;;;;;8.78;100.00;97565.78;5030717;28;20033;-91
2023/03/23 01:07:37;;;;;;;19.38;3.15;;;;;;;8.61;100.00;97561.94;5003635;28;20081;-91
2023/03/23 01:10:04;;;;;;;17.70;3.78;;;;;;;8.80;100.00;97564.72;5010058;28;20041;-91
2023/03/23 01:12:30;;;;;;;25.70;5.15;;;;;;;8.62;100.00;97561.78;5010962;28;20046;-92
2023/03/23 01:14:56;;;;;;;16.73;3.97;;;;;;;8.74;100.00;97546.94;5015390;28;20095;-91
2023/03/23 01:17:21;;;;;;;20.92;4.32;;;;;;;8.53;100.00;97534.69;5001918;28;20045;-91
2023/03/23 01:19:47;;;;;;;11.93;3.13;;;;;;;8.64;100.00;97562.53;5008116;28;20482;-92
2023/03/23 01:22:13;;;;;;;29.65;6.97;;;;;;;8.35;100.00;97549.16;5041856;28;20119;-91
2023/03/23 01:24:38;;;;;;;27.55;5.00;;;;;;;8.71;100.00;97565.44;5010828;28;20125;-91
2023/03/23 01:27:06;;;;;;;19.20;4.00;;;;;;;8.51;100.00;97538.38;5011740;28;20049;-91
2023/03/23 01:29:35;;;;;;;23.58;4.18;;;;;;;8.55;100.00;97556.25;5014581;28;20112;-91
2023/03/23 01:32:02;;;;;;;16.27;3.83;;;;;;;8.66;100.00;97539.75;5026296;28;20399;-91
2023/03/23 01:34:28;;;;;;;18.80;3.80;;;;;;;8.70;100.00;97550.75;5010558;28;20049;-92
2023/03/23 01:36:53;;;;;;;21.23;3.83;;;;;;;8.59;100.00;97535.13;5014355;28;20423;-92
2023/03/23 01:39:20;;;;;;;20.42;4.05;;;;;;;8.87;100.00;97545.00;5023133;28;20137;-92
2023/03/23 01:41:45;;;;;;;17.60;4.10;;;;;;;8.92;100.00;97542.84;5013947;28;20495;-91
2023/03/23 01:44:17;;;;;;;16.23;3.30;;;;;;;8.87;100.00;97542.41;4998355;28;20054;-90
2023/03/23 01:46:44;;;;;;;18.20;4.90;;;;;;;8.70;100.00;97524.69;5011030;28;20045;-91
2023/03/23 01:49:19;;;;;;;19.92;3.83;;;;;;;8.80;100.00;97535.19;5006921;28;20049;-91
2023/03/23 01:51:51;;;;;;;19.63;3.90;;;;;;;8.73;100.00;97522.66;5009531;28;20133;-91
2023/03/23 01:54:20;;;;;;;24.02;5.25;;;;;;;8.83;100.00;97530.53;5011489;28;20041;-90
2023/03/23 01:56:53;;;;;;;16.27;3.05;;;;;;;8.72;100.00;97514.94;5003421;28;20056;-91
2023/03/23 01:59:20;;;;;;;26.25;4.68;;;;;;;8.80;100.00;97519.53;5013608;28;20056;-92
2023/03/23 02:01:46;;;;;;;22.20;4.60;;;;;;;8.39;100.00;97503.63;5016542;28;20378;-91
2023/03/23 02:04:14;;;;;;;23.20;4.55;;;;;;;8.74;100.00;97523.47;5001744;28;20076;-91
2023/03/23 02:06:40;;;;;;;19.08;4.38;;;;;;;8.65;100.00;97504.16;5017540;28;20391;-91
2023/03/23 02:09:07;;;;;;;19.50;3.97;;;;;;;8.79;100.00;97512.66;5012474;28;20041;-91
2023/03/23 02:11:33;;;;;;;16.88;4.22;;;;;;;8.53;100.00;97469.50;5027782;28;20052;-91
2023/03/23 02:13:58;;;;;;;19.70;3.85;;;;;;;8.70;100.00;97486.38;5017071;28;20049;-91
2023/03/23 02:16:30;;;;;;;18.38;3.55;;;;;;;8.71;100.00;97501.09;5017025;28;20520;-91
2023/03/23 02:19:35;;;;;;;17.60;4.00;;;;;;;8.80;100.00;97499.50;5010669;28;20403;-91
2023/03/23 02:22:07;;;;;;;20.67;3.88;;;;;;;8.91;100.00;97489.00;5027496;28;20053;-92
2023/03/23 02:25:05;;;;;;;18.85;3.60;;;;;;;9.04;100.00;97488.81;5002685;28;20061;-91
2023/03/23 02:28:06;;;;;;;12.73;3.13;;;;;;;8.99;100.00;97466.66;5016896;28;20046;-91
2023/03/23 02:30:34;;;;;;;18.58;3.38;;;;;;;9.00;100.00;97473.56;4942163;28;20381;-90
2023/03/23 02:33:26;;;;;;;13.60;3.20;;;;;;;9.16;100.00;97468.69;5032785;28;20049;-90
2023/03/23 02:35:59;;;;;;;9.23;2.30;;;;;;;8.85;100.00;97453.00;5009528;28;20121;-91
2023/03/23 02:38:35;;;;;;;12.20;2.55;;;;;;;8.68;100.00;97469.22;5013651;28;20403;-90
2023/03/23 02:41:03;;;;;;;10.40;2.55;;;;;;;8.41;100.00;97443.56;5025958;28;20042;-91
2023/03/23 02:43:36;;;;;;;17.48;2.55;;;;;;;8.73;100.00;97443.56;5032905;28;20050;-91
2023/03/23 02:46:06;;;;;;;9.07;2.55;;;;;;;8.92;100.00;97453.28;5016306;28;20080;-91
2023/03/23 02:48:33;;;;;;;10.02;1.95;;;;;;;8.66;100.00;97438.03;5015093;28;20041;-91
2023/03/23 02:51:00;;;;;;;13.45;2.25;;;;;;;9.16;100.00;97439.16;5004076;28;20465;-92
2023/03/23 02:53:28;;;;;;;17.60;2.40;;;;;;;9.03;100.00;97445.41;5001153;28;20042;-92
2023/03/23 02:55:57;;;;;;;9.57;2.60;;;;;;;8.67;100.00;97433.63;5021940;28;20142;-92
2023/03/23 02:58:23;;;;;;;10.38;2.50;;;;;;;8.77;100.00;97418.88;5015616;28;20491;-91
2023/03/23 03:00:50;;;;;;;11.45;2.47;;;;;;;8.76;100.00;97429.44;5012902;28;20125;-91
2023/03/23 03:03:21;;;;;;;10.15;2.00;;;;;;;8.76;100.00;97413.78;5008323;28;20083;-91
2023/03/23 03:06:14;;;;;;;10.25;1.75;;;;;;;8.80;100.00;97407.34;5003429;28;20052;-91
2023/03/23 03:08:39;;;;;;;9.98;2.08;;;;;;;8.66;100.00;97425.00;5011507;28;20116;-91
2023/03/23 03:11:12;;;;;;;6.18;1.50;;;;;;;8.66;100.00;97403.31;5002582;28;20519;-91
2023/03/23 03:13:44;;;;;;;4.72;1.38;;;;;;;8.66;100.00;97432.00;5013238;28;20075;-91
2023/03/23 03:16:19;;;;;;;3.47;1.20;;;;;;;8.78;100.00;97445.78;4996117;28;20125;-91
2023/03/23 03:18:51;;;;;;;3.28;1.13;;;;;;;8.74;100.00;97453.03;5010043;28;20145;-91
2023/03/23 03:21:25;;;;;;;3.63;1.10;;;;;;;8.48;100.00;97429.94;5016171;28;20403;-91
2023/03/23 03:23:54;;;;;;;3.25;0.93;;;;;;;8.52;100.00;97425.31;5001682;28;20053;-91
2023/03/23 03:26:21;;;;;;;2.30;1.00;;;;;;;8.49;100.00;97421.16;5031987;28;20133;-91
2023/03/23 03:28:48;;;;;;;2.72;1.00;;;;;;;8.40;100.00;97423.66;5011713;28;20140;-92
2023/03/23 03:31:18;;;;;;;2.40;0.90;;;;;;;8.43;100.00;97416.44;5016997;28;20041;-92
2023/03/23 03:33:44;;;;;;;2.92;0.90;;;;;;;8.13;100.00;97393.69;5026168;28;20141;-92
2023/03/23 03:36:17;;;;;;;2.72;0.90;;;;;;;8.48;100.00;97442.13;5027855;28;20068;-92
2023/03/23 03:38:44;;;;;;;1.88;1.02;;;;;;;8.27;100.00;97410.78;5002002;28;20495;-91
2023/03/23 03:41:10;;;;;;;2.15;1.00;;;;;;;8.32;100.00;97422.50;5013442;28;20535;-91
2023/03/23 03:43:36;;;;;;;1.63;1.00;;;;;;;8.27;100.00;97431.63;5005052;28;20073;-92
2023/03/23 03:46:02;;;;;;;1.20;0.80;;;;;;;8.14;100.00;97418.78;5024969;28;20037;-90
2023/03/23 03:48:27;;;;;;;1.58;0.90;;;;;;;8.12;100.00;97408.47;4999479;28;20045;-90
2023/03/23 03:50:56;;;;;;;1.95;1.05;;;;;;;8.13;100.00;97417.13;5009004;28;20043;-90
2023/03/23 03:53:22;;;;;;;0.98;0.75;;;;;;;8.22;100.00;97428.59;5008159;28;20053;-91
2023/03/23 03:55:49;;;;;;;1.05;0.82;;;;;;;8.04;100.00;97431.72;5007926;28;20037;-91
2023/03/23 03:58:16;;;;;;;1.17;0.93;;;;;;;8.16;100.00;97448.13;5011089;28;20054;-91
2023/03/23 04:00:43;;;;;;;2.30;1.00;;;;;;;8.03;100.00;97430.06;5001873;28;20100;-91
2023/03/23 04:03:08;;;;;;;1.23;0.90;;;;;;;8.04;100.00;97436.94;4995618;28;20050;-91
2023/03/23 04:05:36;;;;;;;1.30;0.90;;;;;;;7.72;100.00;97442.06;5004454;28;20045;-91
2023/03/23 04:08:03;;;;;;;1.92;0.90;;;;;;;7.82;100.00;97434.38;4999906;28;20514;-92
2023/03/23 04:10:30;;;;;;;1.55;0.90;;;;;;;7.96;100.00;97455.75;5010619;28;20050;-91
2023/03/23 04:12:56;;;;;;;0.80;0.80;;;;;;;7.96;100.00;97475.78;5008521;28;20349;-90
2023/03/23 04:15:22;;;;;;;1.85;1.00;;;;;;;7.84;100.00;97476.75;5014948;28;20045;-90
2023/03/23 04:17:48;;;;;;;0.88;0.80;;;;;;;7.68;100.00;97464.91;5027825;28;20462;-90
2023/03/23 04:20:22;;;;;;;1.65;0.80;;;;;;;7.75;100.00;97453.06;4999382;28;20120;-90
2023/03/23 04:22:51;;;;;;;1.40;1.00;;;;;;;7.88;100.00;97470.34;5003193;28;20053;-91
2023/03/23 04:25:22;;;;;;;1.00;0.80;;;;;;;7.77;100.00;97474.63;4998117;28;20045;-91
2023/03/23 04:27:54;;;;;;;1.38;0.90;;;;;;;7.95;100.00;97494.97;5004405;28;20492;-90
2023/03/23 04:30:24;;;;;;;1.45;0.90;;;;;;;7.95;100.00;97493.19;5013322;28;20046;-91
2023/03/23 04:32:51;;;;;;;1.40;0.80;;;;;;;8.02;100.00;97484.88;5030713;28;20128;-90
2023/03/23 04:35:20;;;;;;;1.27;0.80;;;;;;;7.99;100.00;97486.78;5010483;28;20048;-90
2023/03/23 04:37:46;;;;;;;1.35;0.80;;;;;;;7.81;100.00;97483.03;4999660;28;20133;-91
2023/03/23 04:40:14;;;;;;;0.88;0.80;;;;;;;7.90;100.00;97486.69;4997241;28;20539;-91
2023/03/23 04:42:45;;;;;;;1.10;0.80;;;;;;;7.77;100.00;97503.28;5024868;28;20088;-91
2023/03/23 04:45:12;;;;;;;1.15;0.80;;;;;;;7.72;100.00;97504.56;4994000;28;20057;-90
2023/03/23 04:47:41;;;;;;;1.13;0.80;;;;;;;7.74;100.00;97510.50;5005216;28;20504;-90
2023/03/23 04:50:12;;;;;;;1.20;0.85;;;;;;;7.93;100.00;97513.34;5006393;28;20041;-90
2023/03/23 04:52:44;;;;;;;1.83;0.90;;;;;;;7.71;100.00;97495.13;5018341;28;20458;-90
2023/03/23 04:55:12;;;;;;;0.85;0.80;;;;;;;7.70;100.00;97512.53;5034250;28;20399;-90
2023/03/23 04:57:38;;;;;;;0.82;0.80;;;;;;;7.71;100.00;97510.75;5028508;28;20107;-90
2023/03/23 05:00:08;;;;;;;1.40;0.90;;;;;;;7.60;100.00;97493.34;5014259;28;20133;-90
2023/03/23 05:02:41;;;;;;;1.42;0.90;;;;;;;7.83;100.00;97516.78;5017876;28;20759;-90
2023/03/23 05:05:14;;;;;;;1.00;0.90;;;;;;;7.72;100.00;97508.03;5018674;28;20732;-90
2023/03/23 05:07:40;;;;;;;;;;;;;;;7.97;100.00;97524.34;4998842;28;20077;-90
2023/03/23 05:10:07;;;;;;;1.13;0.80;;;;;;;7.75;100.00;97520.78;5009959;28;19987;-90
2023/03/23 05:12:33;;;;;;;1.35;0.80;;;;;;;7.68;100.00;97531.78;5009888;28;20050;-91
2023/03/23 05:14:59;;;;;;;1.15;0.80;;;;;;;7.80;100.00;97557.72;5004333;28;20064;-88
2023/03/23 05:17:26;;;;;;;1.40;0.90;;;;;;;7.85;100.00;97552.16;5014683;28;20042;-86
2023/03/23 05:19:52;;;;;;;0.90;0.80;;;;;;;7.67;100.00;97551.81;5000509;28;20050;-87
2023/03/23 05:22:20;;;;;;;0.80;0.80;;;;;;;7.65;100.00;97561.53;5014561;28;20069;-87
2023/03/23 05:24:47;;;;;;;1.65;0.90;;;;;;;7.24;100.00;97562.84;5013442;28;20046;-87
2023/03/23 05:27:14;;;;;;;1.27;0.80;;;;;;;7.11;100.00;97554.31;4999270;28;20099;-86
2023/03/23 05:29:40;;;;;;;1.05;0.80;;;;;;;7.28;100.00;97563.44;5026707;28;20564;-89
2023/03/23 05:32:10;;;;;;;1.30;0.90;;;;;;;7.36;100.00;97569.72;5013858;28;20041;-89
2023/03/23 05:34:36;;;;;;;1.33;0.95;;;;;;;7.27;100.00;97560.03;5005691;28;20049;-88
2023/03/23 05:37:03;;;;;;;1.65;0.90;;;;;;;7.25;100.00;97556.72;5022874;28;20484;-89
2023/03/23 05:39:31;;;;;;;1.02;0.90;;;;;;;7.39;100.00;97574.72;5006008;28;20044;-90
2023/03/23 05:41:56;;;;;;;0.90;0.80;;;;;;;7.36;100.00;97577.53;5012251;28;20111;-90
2023/03/23 05:44:22;;;;;;;1.02;0.90;;;;;;;7.41;100.00;97585.84;5017282;28;20132;-87
2023/03/23 05:46:48;;;;;;;1.63;0.90;;;;;;;7.53;100.00;97578.88;5003237;28;20037;-89
2023/03/23 05:49:18;;;;;;;2.03;0.93;;;;;;;7.51;100.00;97562.56;5006404;28;20045;-87
2023/03/23 05:51:45;;;;;;;1.55;0.80;;;;;;;7.72;100.00;97586.16;5016366;28;20045;-88
2023/03/23 05:54:13;;;;;;;1.00;0.90;;;;;;;7.46;100.00;97575.09;5003459;28;20053;-90
2023/03/23 05:56:38;;;;;;;2.00;1.00;;;;;;;7.43;100.00;97600.53;5010820;28;20088;-90
2023/03/23 05:59:04;;;;;;;0.88;0.80;;;;;;;7.94;100.00;97606.16;5005361;28;20077;-90
2023/03/23 06:01:31;;;;;;;0.82;0.80;;;;;;;7.90;100.00;97591.72;5016485;28;20044;-90
2023/03/23 06:03:58;;;;;;;1.30;0.82;;;;;;;7.85;100.00;97603.44;5007021;28;20052;-90
2023/03/23 06:06:29;;;;;;;1.27;0.90;;;;;;;8.12;100.00;97603.09;5012653;28;20041;-89
2023/03/23 06:08:56;;;;;;;2.35;0.90;;;;;;;7.90;100.00;97611.75;5013708;28;20052;-90
2023/03/23 06:11:24;;;;;;;1.95;0.93;;;;;;;7.86;100.00;97620.72;5015394;28;20045;-90
2023/03/23 06:13:50;;;;;;;1.83;1.02;;;;;;;7.93;100.00;97617.53;5012919;28;20885;-89
2023/03/23 06:16:16;;;;;;;1.30;0.90;;;;;;;8.04;100.00;97628.91;5015342;28;20042;-89
2023/03/23 06:18:42;;;;;;;1.55;0.98;;;;;;;7.94;100.00;97616.56;5009455;28;20057;-90
2023/03/23 06:21:09;;;;;;;1.13;0.90;;;;;;;7.81;100.00;97626.28;5014378;28;20042;-89
2023/03/23 06:23:35;;;;;;;4.28;1.05;;;;;;;7.81;100.00;97639.31;5016208;28;20069;-89
2023/03/23 06:26:05;;;;;;;1.92;1.00;;;;;;;7.93;100.00;97658.38;5016046;28;20756;-89
2023/03/23 06:28:31;;;;;;;1.60;0.95;;;;;;;7.88;100.00;97661.34;5014018;28;20487;-88
2023/03/23 06:31:06;;;;;;;2.50;1.05;;;;;;;7.87;100.00;97646.66;5016551;28;20045;-89
2023/03/23 06:33:37;;;;;;;2.42;1.05;;;;;;;7.92;100.00;97648.91;5016595;28;20551;-89
2023/03/23 06:36:04;;;;;;;2.15;0.95;;;;;;;7.66;100.00;97646.50;5032703;28;20045;-87
2023/03/23 06:38:31;;;;;;;2.05;0.90;;;;;;;7.85;100.00;97643.34;5012337;28;20048;-89
2023/03/23 06:40:57;;;;;;;2.90;1.00;;;;;;;7.88;100.00;97671.78;5029762;28;20132;-89
2023/03/23 06:43:23;;;;;;;3.17;1.10;;;;;;;7.61;100.00;97666.81;5021842;28;20555;-86
2023/03/23 06:45:50;;;;;;;3.63;1.10;;;;;;;7.92;100.00;97675.78;5015048;28;20041;-87
2023/03/23 06:48:17;;;;;;;1.88;0.98;;;;;;;7.87;100.00;97657.06;5016844;28;20049;-88
2023/03/23 06:50:44;;;;;;;4.90;1.10;;;;;;;7.73;100.00;97670.31;5014561;28;20695;-87
2023/03/23 06:53:10;;;;;;;3.10;1.10;;;;;;;7.81;100.00;97675.78;5015151;28;20817;-89
2023/03/23 06:55:37;;;;;;;3.75;1.17;;;;;;;7.67;100.00;97663.78;5015309;28;20041;-89
2023/03/23 06:58:05;;;;;;;2.28;1.02;;;;;;;7.89;100.00;97683.81;5014644;28;20380;-89
2023/03/23 07:00:31;;;;;;;3.00;1.05;;;;;;;8.86;100.00;97662.53;5014210;28;20491;-90
2023/03/23 07:02:58;;;;;;;1.50;1.00;;;;;;;9.73;100.00;97690.34;5013527;28;20180;-90
2023/03/23 07:05:24;;;;;;;3.53;1.08;;;;;;;9.89;100.00;97673.25;5015220;28;20074;-90
2023/03/23 07:07:49;;;;;;;2.40;1.10;;;;;;;9.86;100.00;97693.56;5015486;28;20474;-89
2023/03/23 07:10:15;;;;;;;2.80;1.10;;;;;;;9.38;100.00;97684.41;4997844;28;20073;-89
2023/03/23 07:12:41;;;;;;;2.33;0.98;;;;;;;9.03;100.00;97695.09;5008595;28;20049;-89
2023/03/23 07:15:10;;;;;;;4.60;1.00;;;;;;;8.87;100.00;97698.94;5025875;28;20041;-90
2023/03/23 07:17:36;;;;;;;2.85;1.00;;;;;;;9.82;100.00;97690.38;5015818;28;20053;-89
2023/03/23 07:20:02;;;;;;;4.28;1.20;;;;;;;10.42;100.00;97681.94;5024546;28;20045;-89
2023/03/23 07:22:28;;;;;;;2.35;1.10;;;;;;;10.70;100.00;97683.00;5014943;28;20049;-91
2023/03/23 07:24:53;;;;;;;5.10;1.00;;;;;;;10.99;100.00;97677.84;5015174;28;20095;-89
2023/03/23 07:27:19;;;;;;;4.72;1.13;;;;;;;10.88;100.00;97693.66;5014756;28;20041;-90
2023/03/23 07:29:44;;;;;;;2.00;0.90;;;;;;;11.08;100.00;97693.69;5013718;28;21597;-89
2023/03/23 07:32:11;;;;;;;3.20;0.90;;;;;;;11.48;100.00;97705.88;5014824;28;20053;-89
2023/03/23 07:34:37;;;;;;;8.18;1.17;;;;;;;11.26;100.00;97697.31;5013271;28;20128;-90
2023/03/23 07:37:03;;;;;;;4.55;1.08;;;;;;;11.21;100.00;97686.44;5012785;28;20045;-90
2023/03/23 07:39:29;;;;;;;2.95;0.98;;;;;;;11.18;100.00;97695.38;5013843;28;20087;-89
2023/03/23 07:41:55;;;;;;;3.30;1.25;;;;;;;11.29;100.00;97690.97;5020343;28;20495;-89
2023/03/23 07:44:21;;;;;;;2.05;0.88;;;;;;;11.63;100.00;97708.91;5011646;28;20057;-89
2023/03/23 07:46:48;;;;;;;2.72;0.98;;;;;;;11.75;100.00;97708.63;5007146;28;20410;-89
2023/03/23 07:49:14;;;;;;;5.07;1.30;;;;;;;11.87;100.00;97718.97;4995476;28;20181;-89
2023/03/23 07:51:40;;;;;;;2.28;0.88;;;;;;;11.75;100.00;97720.91;5014574;28;20096;-89
2023/03/23 07:54:09;;;;;;;4.35;1.13;;;;;;;11.42;100.00;97711.66;5002074;28;20444;-89
2023/03/23 07:56:37;;;;;;;3.63;1.17;;;;;;;11.88;100.00;97723.22;5013392;28;20037;-89
2023/03/23 07:59:04;;;;;;;5.70;1.30;;;;;;;11.91;100.00;97707.25;5011180;28;20144;-89
2023/03/23 08:01:30;;;;;;;4.28;1.00;;;;;;;11.81;100.00;97716.91;5012778;28;20057;-89
2023/03/23 08:03:57;;;;;;;4.85;1.30;;;;;;;11.54;100.00;97713.19;5021936;28;20081;-90
2023/03/23 08:06:24;;;;;;;4.53;1.10;;;;;;;11.74;100.00;97714.03;5008944;28;20096;-90
2023/03/23 08:08:50;;;;;;;4.32;1.17;;;;;;;12.13;100.00;97711.38;5029615;28;20049;-89
2023/03/23 08:11:16;;;;;;;4.60;1.33;;;;;;;11.86;100.00;97715.50;5014662;28;20049;-89
2023/03/23 08:13:42;;;;;;;4.57;1.00;;;;;;;11.69;100.00;97724.91;5014985;28;20454;-90
2023/03/23 08:16:09;;;;;;;4.93;1.00;;;;;;;11.89;100.00;97730.16;5031216;28;20384;-90
2023/03/23 08:18:36;;;;;;;4.03;1.10;;;;;;;12.06;100.00;97724.22;5025077;28;20440;-90
2023/03/23 08:21:04;;;;;;;4.93;1.45;;;;;;;12.05;100.00;97740.09;5003918;28;20087;-89
2023/03/23 08:23:31;;;;;;;5.43;1.20;;;;;;;12.04;100.00;97728.78;4999958;28;20045;-90
2023/03/23 08:25:57;;;;;;;5.95;1.20;;;;;;;12.04;100.00;97739.28;5005626;28;20104;-90
2023/03/23 08:28:23;;;;;;;4.97;1.10;;;;;;;12.54;100.00;97725.06;5007173;28;20045;-89
2023/03/23 08:30:49;;;;;;;4.50;1.20;;;;;;;12.57;100.00;97742.31;5013971;28;20081;-90
2023/03/23 08:33:15;;;;;;;5.88;1.50;;;;;;;12.26;100.00;97726.81;5012921;28;20523;-90
2023/03/23 08:35:43;;;;;;;6.07;1.30;;;;;;;11.99;100.00;97732.78;5011536;28;20153;-89
2023/03/23 08:38:11;;;;;;;3.83;1.05;;;;;;;12.16;100.00;97745.16;5004721;28;20132;-90
2023/03/23 08:40:37;;;;;;;6.55;0.95;;;;;;;12.39;100.00;97734.34;5014391;28;20042;-90
2023/03/23 08:43:02;;;;;;;5.20;1.40;;;;;;;12.28;100.00;97754.53;5014677;28;20056;-89
2023/03/23 08:45:28;;;;;;;6.10;1.00;;;;;;;12.24;100.00;97741.88;5011042;28;20046;-89
2023/03/23 08:47:55;;;;;;;4.20;1.00;;;;;;;12.76;100.00;97760.63;4995066;28;20050;-90
2023/03/23 08:50:25;;;;;;;8.00;1.20;;;;;;;12.22;100.00;97752.50;5008118;28;20048;-89
2023/03/23 08:52:52;;;;;;;4.85;1.20;;;;;;;12.14;100.00;97765.47;5014298;28;20514;-89
2023/03/23 08:55:19;;;;;;;6.15;1.23;;;;;;;12.20;100.00;97764.94;5002911;28;20077;-90
2023/03/23 08:57:45;;;;;;;7.05;1.55;;;;;;;12.54;100.00;97770.50;5011570;28;20053;-90
2023/03/23 09:00:17;;;;;;;3.88;1.10;;;;;;;12.13;100.00;97742.84;5002928;28;20629;-89
2023/03/23 09:02:44;;;;;;;15.70;11.75;;;;;;;12.40;100.00;97781.44;5005075;28;20146;-89
2023/03/23 09:05:10;;;;;;;4.97;1.58;;;;;;;12.44;100.00;97780.19;5014469;28;20049;-91
2023/03/23 09:07:41;;;;;;;6.88;1.60;;;;;;;12.22;100.00;97755.13;5023976;28;20188;-88
2023/03/23 09:10:09;;;;;;;4.00;1.08;;;;;;;12.72;100.00;97780.25;5012634;28;20047;-88
2023/03/23 09:12:35;;;;;;;5.90;1.17;;;;;;;11.90;100.00;97763.28;5003108;28;20571;-89
2023/03/23 09:15:08;;;;;;;7.50;1.60;;;;;;;11.95;100.00;97761.06;5012213;28;20377;-90
2023/03/23 09:17:36;;;;;;;3.88;1.08;;;;;;;12.04;100.00;97778.59;5009983;28;20065;-89
2023/03/23 09:20:04;;;;;;;5.32;1.60;;;;;;;11.92;100.00;97784.97;5026298;28;20474;-90
2023/03/23 09:22:30;;;;;;;5.05;1.77;;;;;;;12.03;100.00;97790.06;5029808;28;20519;-88
2023/03/23 09:24:55;;;;;;;5.20;1.40;;;;;;;11.69;100.00;97769.47;5013929;28;20088;-88
2023/03/23 09:27:21;;;;;;;4.45;1.95;;;;;;;12.17;100.00;97774.88;5021492;28;20073;-88
2023/03/23 09:29:48;;;;;;;4.78;1.45;;;;;;;12.50;100.00;97792.75;4994021;28;20050;-89
2023/03/23 09:32:14;;;;;;;6.72;1.50;;;;;;;12.39;100.00;97782.41;5030669;28;20087;-89
2023/03/23 09:34:41;;;;;;;6.18;1.20;;;;;;;12.66;100.00;97784.28;5011847;28;20054;-89
2023/03/23 09:37:06;;;;;;;3.28;1.20;;;;;;;12.07;100.00;97807.16;5017791;28;20053;-89
2023/03/23 09:39:32;;;;;;;5.53;1.23;;;;;;;12.19;100.00;97794.75;5012651;28;20048;-89
2023/03/23 09:42:31;;;;;;;6.72;1.38;;;;;;;12.57;100.00;97805.31;5011731;28;20136;-89
2023/03/23 09:45:12;;;;;;;6.78;1.38;;;;;;;12.79;100.00;97804.16;5001506;28;20403;-89
2023/03/23 09:47:44;;;;;;;5.20;1.30;;;;;;;13.18;100.00;97806.63;5016905;28;20064;-89
2023/03/23 09:50:16;;;;;;;4.18;1.08;;;;;;;12.83;100.00;97808.94;5015424;28;20403;-89
2023/03/23 09:52:55;;;;;;;7.25;1.50;;;;;;;12.73;100.00;97810.81;5016913;28;20102;-89
2023/03/23 09:55:22;;;;;;;10.63;1.65;;;;;;;12.89;100.00;97803.13;5026668;28;20046;-90
2023/03/23 09:57:59;;;;;;;6.88;1.20;;;;;;;12.62;100.00;97814.41;5010795;28;20461;-90
2023/03/23 10:00:34;;;;;;;3.03;1.20;;;;;;;12.50;100.00;97819.00;5019986;28;20049;-89
2023/03/23 10:03:11;;;;;;;3.75;1.20;;;;;;;13.03;100.00;97812.34;5017331;28;20143;-89
2023/03/23 10:05:51;;;;;;;5.30;1.40;;;;;;;13.39;100.00;97830.88;5028497;28;20046;-89
2023/03/23 10:08:31;;;;;;;4.38;1.30;;;;;;;13.25;100.00;97837.41;5028379;28;20041;-90
2023/03/23 10:10:57;;;;;;;5.60;1.17;;;;;;;13.18;100.00;97840.75;5033645;28;20050;-89
2023/03/23 10:13:34;;;;;;;3.40;1.30;;;;;;;13.17;100.00;97833.84;5016493;28;20056;-90
2023/03/23 10:16:02;;;;;;;2.60;1.10;;;;;;;13.13;100.00;97837.75;5016304;28;20049;-89
2023/03/23 10:18:48;;;;;;;4.20;1.20;;;;;;;13.31;100.00;97846.53;5008308;28;20038;-90
2023/03/23 10:21:18;;;;;;;3.65;1.42;;;;;;;12.88;100.00;97827.72;5012714;28;20121;-90
2023/03/23 10:23:58;;;;;;;6.90;1.85;;;;;;;13.02;100.00;97850.06;5011161;28;20045;-89
2023/03/23 10:26:36;;;;;;;4.75;1.30;;;;;;;13.34;100.00;97856.75;5002132;28;20068;-90
2023/03/23 10:29:11;;;;;;;4.25;1.15;;;;;;;13.24;100.00;97856.78;5018002;28;20080;-89
2023/03/23 10:31:42;;;;;;;6.82;1.55;;;;;;;13.48;100.00;97864.16;5014625;28;20045;-89
2023/03/23 10:34:14;;;;;;;8.25;1.52;;;;;;;12.95;100.00;97854.25;5018487;28;20053;-90
2023/03/23 10:36:55;;;;;;;5.50;1.42;;;;;;;13.05;100.00;97834.03;5006047;28;20072;-89
2023/03/23 10:39:26;;;;;;;4.72;1.30;;;;;;;13.16;100.00;97848.78;5016382;28;20045;-89
2023/03/23 10:41:52;;;;;;;3.15;1.20;;;;;;;13.37;100.00;97853.84;5024668;28;20104;-90
2023/03/23 10:44:21;;;;;;;7.75;1.48;;;;;;;13.41;100.00;97851.75;5026091;28;20041;-89
2023/03/23 10:46:53;;;;;;;5.07;1.40;;;;;;;13.24;100.00;97848.06;5005090;28;20120;-89
2023/03/23 10:49:57;;;;;;;4.07;1.20;;;;;;;13.43;100.00;97834.84;5007622;28;20112;-89
2023/03/23 10:52:32;;;;;;;;;;;;;;;13.67;100.00;97834.31;5009199;28;20398;-88
2023/03/23 10:55:17;;;;;;;6.18;1.58;;;;;;;13.25;100.00;97849.72;5018666;28;20618;-89
2023/03/23 10:58:04;;;;;;;9.07;1.60;;;;;;;13.29;100.00;97853.69;5006708;28;20111;-89
2023/03/23 11:00:31;;;;;;;5.10;1.35;;;;;;;13.35;100.00;97849.69;5021601;28;20559;-87
2023/03/23 11:03:05;;;;;;;5.05;1.10;;;;;;;13.39;100.00;97851.91;5030669;28;20391;-89
2023/03/23 11:05:50;;;;;;;4.32;1.27;;;;;;;13.65;100.00;97861.69;5013904;28;20037;-89
2023/03/23 11:08:29;;;;;;;5.50;1.35;;;;;;;13.40;100.00;97864.06;5014887;28;20052;-89
2023/03/23 11:11:09;;;;;;;5.53;1.20;;;;;;;13.76;100.00;97871.22;5026625;28;20119;-85
2023/03/23 11:13:40;;;;;;;8.23;1.25;;;;;;;13.61;100.00;97882.19;5007607;28;20037;-85
2023/03/23 11:16:08;;;;;;;5.47;1.15;;;;;;;13.40;100.00;97873.75;5014922;28;20045;-85
2023/03/23 11:18:36;;;;;;;6.90;1.30;;;;;;;13.85;100.00;97886.91;5012581;28;20060;-85
2023/03/23 11:21:04;;;;;;;5.93;1.40;;;;;;;13.46;100.00;97866.09;5006051;28;20052;-85
2023/03/23 11:23:36;;;;;;;3.50;1.33;;;;;;;13.88;100.00;97891.03;5015434;28;20388;-85
2023/03/23 11:26:23;;;;;;;8.17;1.60;;;;;;;13.94;100.00;97893.09;5031015;28;20450;-85
2023/03/23 11:29:26;;;;;;;5.07;1.55;;;;;;;13.93;100.00;97887.97;5011265;28;20052;-85
2023/03/23 11:32:06;;;;;;;5.20;1.57;;;;;;;13.98;100.00;97893.63;5018830;28;20372;-86
2023/03/23 11:34:53;;;;;;;3.08;1.15;;;;;;;13.96;100.00;97896.41;5014732;28;20286;-84
2023/03/23 11:37:28;;;;;;;3.97;1.20;;;;;;;13.38;100.00;97901.97;5011230;28;20511;-85
2023/03/23 11:39:59;;;;;;;3.72;1.02;;;;;;;13.39;100.00;97904.44;5022160;28;20488;-85